Terminal Aerodrome Forecast
Issued by NWS Salt Lake City, UT

Home | Current Version | Previous Version | Text Only | Print | Product List | Glossary On
Versions: 1 2 3 4 5 6 7 8 9 10 11 12 13 14 15 16 17
000
FTUS45 KSLC 251555 AAA
TAFCDC
TAF AMD
KCDC 251555Z 2516/2612 35008KT P6SM SCT060 BKN100
     FM251800 01010G15KT P6SM -SHRA SCT030 BKN060
     FM252100 01012G20KT P6SM VCSH SCT050 BKN090
     FM260100 02007KT P6SM SCT050
     FM260500 VRB04KT P6SM FEW050=

USA.gov is the U.S. government's official web portal to all federal, state and local government web resources and services.